Time;durP1;ratioP1;P1;durP2;ratioP2;P2;SDS_P1;SDS_P2;PMS_P1;PMS_P2;Temp;Humidity;BMP_temperature;BMP_pressure;BME280_temperature;BME280_humidity;BME280_pressure;Samples;Min_cycle;Max_cycle;Signal;HPM_P1;HPM_P2
2023/01/09 00:01:50;;;;;;;10.87;9.47;;;;;;;;;;4985456;28;20077;-71
2023/01/09 00:04:16;;;;;;;12.63;9.90;;;;;;;;;;4992773;28;20283;-72
2023/01/09 00:06:42;;;;;;;11.88;9.77;;;;;;;;;;4994428;28;20116;-71
2023/01/09 00:09:08;;;;;;;12.50;9.60;;;;;;;;;;4986990;28;20044;-71
2023/01/09 00:11:33;;;;;;;12.13;9.65;;;;;;;;;;4984366;28;20440;-71
2023/01/09 00:13:58;;;;;;;12.03;9.27;;;;;;;;;;4987490;28;20043;-71
2023/01/09 00:16:23;;;;;;;10.90;9.17;;;;;;;;;;4995049;28;20320;-71
2023/01/09 00:18:49;;;;;;;12.98;10.27;;;;;;;;;;5005329;28;20277;-71
2023/01/09 00:21:14;;;;;;;12.80;10.27;;;;;;;;;;4996889;28;20117;-71
2023/01/09 00:23:39;;;;;;;12.27;9.68;;;;;;;;;;4989623;28;20542;-70
2023/01/09 00:26:12;;;;;;;11.25;9.38;;;;;;;;;;4995481;28;20749;-71
2023/01/09 00:28:37;;;;;;;13.05;9.93;;;;;;;;;;4983458;28;20544;-71
2023/01/09 00:31:03;;;;;;;12.23;9.55;;;;;;;;;;4991405;28;20034;-71
2023/01/09 00:33:29;;;;;;;13.25;10.05;;;;;;;;;;4981294;28;20022;-71
2023/01/09 00:35:54;;;;;;;11.57;9.48;;;;;;;;;;4994859;28;20099;-71
2023/01/09 00:38:20;;;;;;;12.83;10.07;;;;;;;;;;4995467;28;20046;-71
2023/01/09 00:40:45;;;;;;;13.03;10.07;;;;;;;;;;4984549;28;20293;-71
2023/01/09 00:43:10;;;;;;;11.77;9.43;;;;;;;;;;4983429;28;20688;-71
2023/01/09 00:45:35;;;;;;;11.57;9.17;;;;;;;;;;4984021;28;20383;-71
2023/01/09 00:48:02;;;;;;;11.17;9.23;;;;;;;;;;4982403;28;20404;-71
2023/01/09 00:50:29;;;;;;;12.18;9.93;;;;;;;;;;4972076;28;20298;-70
2023/01/09 00:52:55;;;;;;;11.55;9.68;;;;;;;;;;4981640;28;20038;-71
2023/01/09 00:55:20;;;;;;;11.75;9.70;;;;;;;;;;4988349;28;20042;-71
2023/01/09 00:57:45;;;;;;;11.77;9.40;;;;;;;;;;5002572;28;20045;-71
2023/01/09 01:00:10;;;;;;;13.03;9.43;;;;;;;;;;4985309;28;20301;-71
2023/01/09 01:02:36;;;;;;;11.52;9.68;;;;;;;;;;4997370;28;20290;-71
2023/01/09 01:07:45;;;;;;;11.90;9.50;;;;;;;;;;4984884;28;20053;-71
2023/01/09 01:10:15;;;;;;;13.07;10.32;;;;;;;;;;4992031;28;20440;-71
2023/01/09 01:12:40;;;;;;;11.25;9.30;;;;;;;;;;5000759;28;20026;-71
2023/01/09 01:15:06;;;;;;;12.48;9.52;;;;;;;;;;4977697;28;20027;-71
2023/01/09 01:17:34;;;;;;;12.25;9.52;;;;;;;;;;4995506;28;20116;-71
2023/01/09 01:19:59;;;;;;;11.82;9.57;;;;;;;;;;4984568;28;20038;-71
2023/01/09 01:22:24;;;;;;;12.90;10.07;;;;;;;;;;4955088;28;20771;-71
2023/01/09 01:24:50;;;;;;;13.53;9.90;;;;;;;;;;5000531;28;20501;-71
2023/01/09 01:27:15;;;;;;;12.45;9.82;;;;;;;;;;4982784;28;20475;-70
2023/01/09 01:29:40;;;;;;;11.90;9.63;;;;;;;;;;4983603;28;20034;-72
2023/01/09 01:32:06;;;;;;;12.43;9.30;;;;;;;;;;4980790;28;20289;-72
2023/01/09 01:34:32;;;;;;;13.38;9.65;;;;;;;;;;4982334;28;20034;-72
2023/01/09 01:36:57;;;;;;;11.90;9.93;;;;;;;;;;4982110;28;20089;-73
2023/01/09 01:39:22;;;;;;;12.03;9.57;;;;;;;;;;5012469;28;20649;-73
2023/01/09 01:41:47;;;;;;;11.27;9.47;;;;;;;;;;4984104;28;20305;-73
2023/01/09 01:44:31;;;;;;;12.88;9.77;;;;;;;;;;4996928;28;20287;-73
2023/01/09 01:46:56;;;;;;;11.70;9.50;;;;;;;;;;4982027;28;20058;-73
2023/01/09 01:49:22;;;;;;;12.88;9.75;;;;;;;;;;5000237;28;20625;-73
2023/01/09 01:51:48;;;;;;;10.40;9.00;;;;;;;;;;5015385;28;20018;-72
2023/01/09 01:54:14;;;;;;;11.43;9.38;;;;;;;;;;4983994;28;20028;-72
2023/01/09 01:56:41;;;;;;;12.70;9.75;;;;;;;;;;4992219;28;20126;-72
2023/01/09 01:59:08;;;;;;;11.63;9.45;;;;;;;;;;4982482;28;20037;-72
2023/01/09 02:01:33;;;;;;;11.57;9.40;;;;;;;;;;5015695;28;20050;-73
2023/01/09 02:03:59;;;;;;;11.75;9.70;;;;;;;;;;4986344;28;20026;-74
2023/01/09 02:06:24;;;;;;;12.27;9.90;;;;;;;;;;5003855;28;20131;-72
2023/01/09 02:08:50;;;;;;;12.55;9.45;;;;;;;;;;4983935;28;20027;-72
2023/01/09 02:11:16;;;;;;;12.97;9.77;;;;;;;;;;4984452;28;20092;-72
2023/01/09 02:13:41;;;;;;;12.27;9.80;;;;;;;;;;4991812;28;20291;-73
2023/01/09 02:16:22;;;;;;;11.33;9.43;;;;;;;;;;4991444;28;20038;-73
2023/01/09 02:18:50;;;;;;;12.68;9.30;;;;;;;;;;4979043;28;20789;-73
2023/01/09 02:21:25;;;;;;;12.88;10.57;;;;;;;;;;4985782;28;20023;-72
2023/01/09 02:23:50;;;;;;;12.43;9.85;;;;;;;;;;4979598;28;20039;-73
2023/01/09 02:26:34;;;;;;;12.27;9.67;;;;;;;;;;4996412;28;20036;-72
2023/01/09 02:29:08;;;;;;;11.82;9.55;;;;;;;;;;4993360;28;20038;-73
2023/01/09 02:31:33;;;;;;;11.80;9.55;;;;;;;;;;4991517;28;20196;-73
2023/01/09 02:34:01;;;;;;;12.70;9.73;;;;;;;;;;5011745;28;20112;-73
2023/01/09 02:36:29;;;;;;;12.38;9.65;;;;;;;;;;5009032;28;20032;-73
2023/01/09 02:39:13;;;;;;;11.25;9.27;;;;;;;;;;5008784;28;20433;-72
2023/01/09 02:41:49;;;;;;;11.15;9.32;;;;;;;;;;5008098;28;20034;-73
2023/01/09 02:44:15;;;;;;;12.25;9.38;;;;;;;;;;4985511;28;20081;-73
2023/01/09 02:46:41;;;;;;;11.88;9.55;;;;;;;;;;5003395;28;20030;-73
2023/01/09 02:49:06;;;;;;;12.33;10.13;;;;;;;;;;4983801;28;20037;-73
2023/01/09 02:51:31;;;;;;;11.43;9.60;;;;;;;;;;4993601;28;20292;-73
2023/01/09 02:54:01;;;;;;;11.20;9.23;;;;;;;;;;5003307;28;20022;-73
2023/01/09 02:56:35;;;;;;;11.55;9.82;;;;;;;;;;4994593;28;20136;-73
2023/01/09 02:59:13;;;;;;;12.20;9.45;;;;;;;;;;4998277;28;20034;-74
2023/01/09 03:01:46;;;;;;;11.80;9.52;;;;;;;;;;5015726;28;20069;-73
2023/01/09 03:04:20;;;;;;;11.57;8.88;;;;;;;;;;5011890;28;20065;-73
2023/01/09 03:06:45;;;;;;;11.48;9.57;;;;;;;;;;5015202;28;20076;-73
2023/01/09 03:09:12;;;;;;;11.23;8.70;;;;;;;;;;5012626;28;20735;-72
2023/01/09 03:11:39;;;;;;;12.23;9.18;;;;;;;;;;4996237;28;20037;-72
2023/01/09 03:14:06;;;;;;;13.80;9.70;;;;;;;;;;5014915;28;20034;-73
2023/01/09 03:16:32;;;;;;;12.13;9.43;;;;;;;;;;5015322;28;20038;-73
2023/01/09 03:18:58;;;;;;;11.00;9.00;;;;;;;;;;5001471;28;20497;-72
2023/01/09 03:21:23;;;;;;;11.80;9.63;;;;;;;;;;5007751;28;20099;-73
2023/01/09 03:23:49;;;;;;;12.50;9.30;;;;;;;;;;5009358;28;20268;-72
2023/01/09 03:26:15;;;;;;;11.27;9.68;;;;;;;;;;5004576;28;20042;-73
2023/01/09 03:28:40;;;;;;;11.18;9.18;;;;;;;;;;5004513;28;20598;-73
2023/01/09 03:31:06;;;;;;;12.33;9.50;;;;;;;;;;5002342;28;20393;-72
2023/01/09 03:33:31;;;;;;;11.87;8.93;;;;;;;;;;5004118;28;20276;-73
2023/01/09 03:35:56;;;;;;;11.97;9.37;;;;;;;;;;5005132;28;20297;-73
2023/01/09 03:38:21;;;;;;;11.47;9.00;;;;;;;;;;5015080;28;20048;-73
2023/01/09 03:40:46;;;;;;;12.47;9.37;;;;;;;;;;5008286;28;20323;-73
2023/01/09 03:43:12;;;;;;;11.37;9.03;;;;;;;;;;4996623;28;20315;-73
2023/01/09 03:45:37;;;;;;;10.20;8.33;;;;;;;;;;5004979;28;20300;-73
2023/01/09 03:48:02;;;;;;;11.05;8.80;;;;;;;;;;5006229;28;20034;-73
2023/01/09 03:50:27;;;;;;;10.90;8.75;;;;;;;;;;5017637;28;20038;-72
2023/01/09 03:52:53;;;;;;;10.75;8.80;;;;;;;;;;5006396;28;20121;-73
2023/01/09 03:55:18;;;;;;;11.13;8.43;;;;;;;;;;5000114;28;20825;-72
2023/01/09 03:57:43;;;;;;;11.07;9.07;;;;;;;;;;5009110;28;20674;-72
2023/01/09 04:00:09;;;;;;;11.25;9.05;;;;;;;;;;5015636;28;20515;-72
2023/01/09 04:02:34;;;;;;;11.20;9.07;;;;;;;;;;5004574;28;20037;-76
2023/01/09 04:04:59;;;;;;;10.43;8.33;;;;;;;;;;5003723;28;20513;-72
2023/01/09 04:07:24;;;;;;;10.10;8.30;;;;;;;;;;5018628;28;20284;-72
2023/01/09 04:09:50;;;;;;;11.83;9.13;;;;;;;;;;5016968;28;20268;-73
2023/01/09 04:12:15;;;;;;;11.27;8.87;;;;;;;;;;5008977;28;20025;-73
2023/01/09 04:14:40;;;;;;;10.93;8.80;;;;;;;;;;5015719;28;20319;-72
2023/01/09 04:17:05;;;;;;;10.63;8.52;;;;;;;;;;5004413;28;20041;-73
2023/01/09 04:19:31;;;;;;;10.53;8.80;;;;;;;;;;4994990;28;20721;-72
2023/01/09 04:21:56;;;;;;;10.43;8.33;;;;;;;;;;5007679;28;20303;-73
2023/01/09 04:24:21;;;;;;;11.27;8.65;;;;;;;;;;5005843;28;20112;-73
2023/01/09 04:26:46;;;;;;;10.73;8.80;;;;;;;;;;5016863;28;20373;-74
2023/01/09 04:29:12;;;;;;;9.83;8.17;;;;;;;;;;5004198;28;20423;-73
2023/01/09 04:31:37;;;;;;;10.30;8.70;;;;;;;;;;5010124;28;20297;-72
2023/01/09 04:34:02;;;;;;;10.93;8.40;;;;;;;;;;5013708;28;20268;-72
2023/01/09 04:36:27;;;;;;;10.60;8.43;;;;;;;;;;5020123;28;20056;-72
2023/01/09 04:38:52;;;;;;;9.90;8.48;;;;;;;;;;5004560;28;20026;-72
2023/01/09 04:44:02;;;;;;;10.98;9.20;;;;;;;;;;5006460;28;20468;-73
2023/01/09 04:46:27;;;;;;;9.25;7.93;;;;;;;;;;4993981;28;20062;-73
2023/01/09 04:48:52;;;;;;;10.30;8.43;;;;;;;;;;5002209;28;20006;-72
2023/01/09 04:51:17;;;;;;;10.27;8.20;;;;;;;;;;5002405;28;20260;-71
2023/01/09 04:53:43;;;;;;;21.57;9.47;;;;;;;;;;5013137;28;20663;-73
2023/01/09 04:56:08;;;;;;;22.47;9.30;;;;;;;;;;5003945;28;20810;-74
2023/01/09 04:58:33;;;;;;;23.90;9.23;;;;;;;;;;5016736;28;20795;-72
2023/01/09 05:00:58;;;;;;;18.23;8.67;;;;;;;;;;5015219;28;20439;-74
2023/01/09 05:03:24;;;;;;;21.05;9.35;;;;;;;;;;5006633;28;20315;-73
2023/01/09 05:05:49;;;;;;;25.77;9.47;;;;;;;;;;4993915;28;20045;-74
2023/01/09 05:08:14;;;;;;;21.00;8.63;;;;;;;;;;4995662;28;20286;-75
2023/01/09 05:10:39;;;;;;;20.97;8.87;;;;;;;;;;5001478;28;20891;-76
2023/01/09 05:13:04;;;;;;;20.97;9.67;;;;;;;;;;5015116;28;20271;-72
2023/01/09 05:15:30;;;;;;;20.40;9.07;;;;;;;;;;5004160;28;20757;-74
2023/01/09 05:17:55;;;;;;;24.57;8.87;;;;;;;;;;5012569;28;20045;-75
2023/01/09 05:20:20;;;;;;;29.40;9.47;;;;;;;;;;5011851;28;20448;-74
2023/01/09 05:22:45;;;;;;;20.35;9.10;;;;;;;;;;4988501;28;20505;-71
2023/01/09 05:25:11;;;;;;;24.53;8.93;;;;;;;;;;4999932;28;20488;-74
2023/01/09 05:27:36;;;;;;;21.02;9.07;;;;;;;;;;4995960;28;20021;-73
2023/01/09 05:30:01;;;;;;;19.35;8.80;;;;;;;;;;4998370;28;20120;-75
2023/01/09 05:32:26;;;;;;;24.48;8.88;;;;;;;;;;5002646;28;20460;-75
2023/01/09 05:34:52;;;;;;;21.77;9.57;;;;;;;;;;5000653;28;20058;-73
2023/01/09 05:37:17;;;;;;;23.57;8.70;;;;;;;;;;5005418;28;20292;-76
2023/01/09 05:39:42;;;;;;;21.83;8.73;;;;;;;;;;5001203;28;20091;-73
2023/01/09 05:42:07;;;;;;;25.73;9.15;;;;;;;;;;4997369;28;20033;-74
2023/01/09 05:44:32;;;;;;;22.27;8.77;;;;;;;;;;4991534;28;20034;-73
2023/01/09 05:46:58;;;;;;;27.50;9.07;;;;;;;;;;4989761;28;20030;-74
2023/01/09 05:49:23;;;;;;;23.07;9.03;;;;;;;;;;4988535;28;20517;-76
2023/01/09 05:51:48;;;;;;;22.88;9.18;;;;;;;;;;4992686;28;20543;-72
2023/01/09 05:54:13;;;;;;;22.67;9.77;;;;;;;;;;4984459;28;20053;-72
2023/01/09 05:56:39;;;;;;;26.57;9.10;;;;;;;;;;4986395;28;20837;-72
2023/01/09 05:59:04;;;;;;;22.45;9.23;;;;;;;;;;4986059;28;20301;-72
2023/01/09 06:01:29;;;;;;;30.23;9.43;;;;;;;;;;4965873;28;20066;-72
2023/01/09 06:03:54;;;;;;;24.57;9.47;;;;;;;;;;4982525;28;20096;-72
2023/01/09 06:06:20;;;;;;;26.37;9.53;;;;;;;;;;4986578;28;20033;-72
2023/01/09 06:08:45;;;;;;;23.05;8.52;;;;;;;;;;4984046;28;20160;-72
2023/01/09 06:11:10;;;;;;;23.60;9.03;;;;;;;;;;4982756;28;20434;-72
2023/01/09 06:13:35;;;;;;;25.47;9.40;;;;;;;;;;4986510;28;20277;-72
2023/01/09 06:16:01;;;;;;;22.40;9.20;;;;;;;;;;4984189;28;20033;-71
2023/01/09 06:18:26;;;;;;;21.85;7.75;;;;;;;;;;4983266;28;20026;-71
2023/01/09 06:20:51;;;;;;;30.17;9.33;;;;;;;;;;5002449;28;20050;-73
2023/01/09 06:23:16;;;;;;;19.90;8.60;;;;;;;;;;4985228;28;20286;-71
2023/01/09 06:25:42;;;;;;;26.63;8.93;;;;;;;;;;4995667;28;20050;-72
2023/01/09 06:28:07;;;;;;;22.70;8.83;;;;;;;;;;4993044;28;20031;-71
2023/01/09 06:30:33;;;;;;;19.75;8.32;;;;;;;;;;4996925;28;20022;-72
2023/01/09 06:32:58;;;;;;;24.35;8.48;;;;;;;;;;5000333;28;20034;-71
2023/01/09 06:35:23;;;;;;;25.27;9.20;;;;;;;;;;4991809;28;20019;-73
2023/01/09 06:37:48;;;;;;;25.00;9.55;;;;;;;;;;4996070;28;20030;-73
2023/01/09 06:40:14;;;;;;;20.90;9.20;;;;;;;;;;4986287;28;20096;-73
2023/01/09 06:42:43;;;;;;;20.50;8.57;;;;;;;;;;5004482;28;20104;-74
2023/01/09 06:45:09;;;;;;;22.48;8.02;;;;;;;;;;5000080;28;20442;-72
2023/01/09 06:47:34;;;;;;;25.25;8.85;;;;;;;;;;4993167;28;20029;-74
2023/01/09 06:49:59;;;;;;;19.63;8.83;;;;;;;;;;5001924;28;20053;-72
2023/01/09 06:52:25;;;;;;;18.50;8.93;;;;;;;;;;4987493;28;20062;-72
2023/01/09 06:54:50;;;;;;;21.40;8.97;;;;;;;;;;4992642;28;20061;-71
2023/01/09 06:57:15;;;;;;;16.77;8.30;;;;;;;;;;4988409;28;20261;-74
2023/01/09 06:59:40;;;;;;;24.37;8.83;;;;;;;;;;4988029;28;20287;-74
2023/01/09 07:02:08;;;;;;;19.57;8.40;;;;;;;;;;4985568;28;20321;-75
2023/01/09 07:04:33;;;;;;;21.50;8.68;;;;;;;;;;4968947;28;20281;-72
2023/01/09 07:06:58;;;;;;;19.90;8.27;;;;;;;;;;4988357;28;20116;-73
2023/01/09 07:09:24;;;;;;;18.73;8.63;;;;;;;;;;4996400;28;20037;-73
2023/01/09 07:11:49;;;;;;;16.40;7.60;;;;;;;;;;4998233;28;20379;-74
2023/01/09 07:14:14;;;;;;;14.95;7.78;;;;;;;;;;4997237;28;20714;-74
2023/01/09 07:16:39;;;;;;;17.75;8.05;;;;;;;;;;4995300;28;20034;-74
2023/01/09 07:19:05;;;;;;;19.53;8.37;;;;;;;;;;4996326;28;20058;-72
2023/01/09 07:21:30;;;;;;;16.83;8.23;;;;;;;;;;4993722;28;20026;-73
2023/01/09 07:23:55;;;;;;;20.05;8.18;;;;;;;;;;4996881;28;20081;-73
2023/01/09 07:26:20;;;;;;;16.20;8.07;;;;;;;;;;4993727;28;20038;-73
2023/01/09 07:28:46;;;;;;;16.50;7.47;;;;;;;;;;4983690;28;20285;-72
2023/01/09 07:31:11;;;;;;;17.40;8.10;;;;;;;;;;4987124;28;20038;-73
2023/01/09 07:33:36;;;;;;;17.00;8.00;;;;;;;;;;4988633;28;20257;-74
2023/01/09 07:36:01;;;;;;;16.60;7.87;;;;;;;;;;4985468;28;20034;-73
2023/01/09 07:38:27;;;;;;;14.10;7.50;;;;;;;;;;4992548;28;20050;-73
2023/01/09 07:40:52;;;;;;;17.40;7.40;;;;;;;;;;4989005;28;20035;-73
2023/01/09 07:43:17;;;;;;;13.37;7.40;;;;;;;;;;4998744;28;20030;-74
2023/01/09 07:45:42;;;;;;;16.85;7.30;;;;;;;;;;4999711;28;20392;-73
2023/01/09 07:48:09;;;;;;;15.30;7.30;;;;;;;;;;4995979;28;20057;-73
2023/01/09 07:50:34;;;;;;;15.13;7.22;;;;;;;;;;5002366;28;20030;-73
2023/01/09 07:52:59;;;;;;;14.67;7.73;;;;;;;;;;5009321;28;20037;-73
2023/01/09 07:55:24;;;;;;;14.07;6.97;;;;;;;;;;5004075;28;20030;-74
2023/01/09 07:57:50;;;;;;;18.43;7.20;;;;;;;;;;5019726;28;20063;-70
2023/01/09 08:00:15;;;;;;;14.23;7.35;;;;;;;;;;5008044;28;20017;-74
2023/01/09 08:02:40;;;;;;;12.50;7.10;;;;;;;;;;5019863;28;20040;-74
2023/01/09 08:05:07;;;;;;;12.50;6.87;;;;;;;;;;5003711;28;20037;-72
2023/01/09 08:07:32;;;;;;;12.23;6.82;;;;;;;;;;4992396;28;20108;-71
2023/01/09 08:09:58;;;;;;;13.73;7.03;;;;;;;;;;5002256;28;20069;-70
2023/01/09 08:12:23;;;;;;;11.17;7.40;;;;;;;;;;4999160;28;20456;-71
2023/01/09 08:14:50;;;;;;;11.25;7.55;;;;;;;;;;5001692;28;20493;-71
2023/01/09 08:17:15;;;;;;;9.88;6.82;;;;;;;;;;4991444;28;20524;-70
2023/01/09 08:19:42;;;;;;;9.90;7.20;;;;;;;;;;4994741;28;20065;-71
2023/01/09 08:22:07;;;;;;;11.95;6.75;;;;;;;;;;4995189;28;20324;-70
2023/01/09 08:24:33;;;;;;;12.07;7.33;;;;;;;;;;4994807;28;20072;-77
2023/01/09 08:26:58;;;;;;;11.07;6.65;;;;;;;;;;4999860;28;20085;-71
2023/01/09 08:29:23;;;;;;;10.60;6.90;;;;;;;;;;4997989;28;20032;-71
2023/01/09 08:31:49;;;;;;;11.00;7.37;;;;;;;;;;4994554;28;20476;-70
2023/01/09 08:34:14;;;;;;;11.50;6.93;;;;;;;;;;4995092;28;20289;-69
2023/01/09 08:36:39;;;;;;;12.40;7.07;;;;;;;;;;4997464;28;20026;-72
2023/01/09 08:39:04;;;;;;;10.43;7.17;;;;;;;;;;5004628;28;20083;-68
2023/01/09 08:47:06;;;;;;;10.48;7.28;;;;;;;;;;5000182;28;20448;-72
2023/01/09 08:49:32;;;;;;;12.10;6.85;;;;;;;;;;5003089;28;20029;-73
2023/01/09 08:51:58;;;;;;;10.00;7.30;;;;;;;;;;5021702;28;20028;-72
2023/01/09 08:54:23;;;;;;;10.80;6.65;;;;;;;;;;5009581;28;20021;-71
2023/01/09 08:56:48;;;;;;;10.23;6.90;;;;;;;;;;5003773;28;20568;-71
2023/01/09 08:59:14;;;;;;;12.20;7.87;;;;;;;;;;5003804;28;20466;-72
2023/01/09 09:01:39;;;;;;;11.13;7.20;;;;;;;;;;4985266;28;20320;-72
2023/01/09 09:04:04;;;;;;;9.90;7.00;;;;;;;;;;5001558;28;20042;-72
2023/01/09 09:06:30;;;;;;;10.37;6.90;;;;;;;;;;5011501;28;20057;-71
2023/01/09 09:08:56;;;;;;;11.93;8.15;;;;;;;;;;5009987;28;20604;-71
2023/01/09 09:11:21;;;;;;;11.68;7.82;;;;;;;;;;5005245;28;20046;-72
2023/01/09 09:13:46;;;;;;;9.90;7.07;;;;;;;;;;5002773;28;20556;-71
2023/01/09 09:16:11;;;;;;;10.47;7.03;;;;;;;;;;4998506;28;20363;-70
2023/01/09 09:18:36;;;;;;;10.73;7.77;;;;;;;;;;5003042;28;20339;-70
2023/01/09 09:21:02;;;;;;;11.33;7.53;;;;;;;;;;5003732;28;20045;-70
2023/01/09 09:23:27;;;;;;;10.87;7.80;;;;;;;;;;5011726;28;20030;-70
2023/01/09 09:25:52;;;;;;;11.87;7.90;;;;;;;;;;5012618;28;20293;-70
2023/01/09 09:28:17;;;;;;;10.60;7.50;;;;;;;;;;5018021;28;20042;-70
2023/01/09 09:30:43;;;;;;;10.67;7.57;;;;;;;;;;4999601;28;20461;-71
2023/01/09 09:33:08;;;;;;;10.77;7.32;;;;;;;;;;4999496;28;20514;-71
2023/01/09 09:35:33;;;;;;;9.60;7.03;;;;;;;;;;4984238;28;20122;-71
2023/01/09 09:37:59;;;;;;;11.23;7.80;;;;;;;;;;4999118;28;20311;-71
2023/01/09 09:40:45;;;;;;;10.73;8.35;;;;;;;;;;5002661;28;20554;-71
2023/01/09 09:46:01;;;;;;;10.70;7.72;;;;;;;;;;4997570;28;20121;-70
2023/01/09 09:48:27;;;;;;;10.35;7.43;;;;;;;;;;5001096;28;20022;-71
2023/01/09 09:51:10;;;;;;;9.73;7.90;;;;;;;;;;5002805;28;20038;-70
2023/01/09 09:53:37;;;;;;;8.55;7.40;;;;;;;;;;5014933;28;20040;-70
2023/01/09 09:56:05;;;;;;;10.70;8.02;;;;;;;;;;4998195;28;20061;-71
2023/01/09 09:58:33;;;;;;;9.52;7.40;;;;;;;;;;5002084;28;20033;-72
2023/01/09 10:00:58;;;;;;;10.75;7.80;;;;;;;;;;5015356;28;20026;-70
2023/01/09 10:03:23;;;;;;;10.10;7.90;;;;;;;;;;5010554;28;20100;-70
2023/01/09 10:05:49;;;;;;;10.23;7.77;;;;;;;;;;5003769;28;20054;-71
2023/01/09 10:08:25;;;;;;;9.57;7.30;;;;;;;;;;4993806;28;20107;-71
2023/01/09 10:10:51;;;;;;;10.60;8.23;;;;;;;;;;4996014;28;20084;-72
2023/01/09 10:16:06;;;;;;;11.27;6.93;;;;;;;;;;4995153;28;20037;-70
2023/01/09 10:18:47;;;;;;;9.98;7.35;;;;;;;;;;5032854;28;20041;-70
2023/01/09 10:21:22;;;;;;;9.60;7.00;;;;;;;;;;4985887;28;20069;-69
2023/01/09 10:23:58;;;;;;;9.60;7.25;;;;;;;;;;5008755;28;20038;-72
2023/01/09 10:26:26;;;;;;;9.00;7.22;;;;;;;;;;5004369;28;20134;-71
2023/01/09 10:29:00;;;;;;;8.68;7.15;;;;;;;;;;5003911;28;20113;-71
2023/01/09 10:31:35;;;;;;;10.80;7.93;;;;;;;;;;5005194;28;20512;-71
2023/01/09 10:34:10;;;;;;;8.93;7.43;;;;;;;;;;5012714;28;20550;-70
2023/01/09 10:36:53;;;;;;;10.55;7.63;;;;;;;;;;5010482;28;20104;-70
2023/01/09 10:39:20;;;;;;;10.65;7.68;;;;;;;;;;5004598;28;20105;-72
2023/01/09 10:41:45;;;;;;;10.75;7.80;;;;;;;;;;5017058;28;20053;-71
2023/01/09 10:44:17;;;;;;;8.90;7.70;;;;;;;;;;5014296;28;20471;-71
2023/01/09 10:46:44;;;;;;;10.45;7.97;;;;;;;;;;5006551;28;20123;-71
2023/01/09 10:49:10;;;;;;;8.43;7.10;;;;;;;;;;5004216;28;20046;-71
2023/01/09 10:51:44;;;;;;;8.68;7.25;;;;;;;;;;5001835;28;20118;-71
2023/01/09 10:54:11;;;;;;;8.07;7.03;;;;;;;;;;5008233;28;20476;-73
2023/01/09 10:56:37;;;;;;;9.00;7.70;;;;;;;;;;5013611;28;20562;-75
2023/01/09 10:59:02;;;;;;;9.13;7.28;;;;;;;;;;5008224;28;20076;-74
2023/01/09 11:01:29;;;;;;;9.60;7.33;;;;;;;;;;5003045;28;20038;-74
2023/01/09 11:03:54;;;;;;;9.95;8.27;;;;;;;;;;5003549;28;20387;-75
2023/01/09 11:06:21;;;;;;;8.93;7.43;;;;;;;;;;5002862;28;21684;-73
2023/01/09 11:08:46;;;;;;;9.07;7.18;;;;;;;;;;5000572;28;20034;-73
2023/01/09 11:11:11;;;;;;;10.32;7.75;;;;;;;;;;4989592;28;20037;-72
2023/01/09 11:13:45;;;;;;;10.32;7.40;;;;;;;;;;4990879;28;20697;-75
2023/01/09 11:16:17;;;;;;;9.95;7.97;;;;;;;;;;4993138;28;20119;-72
2023/01/09 11:18:50;;;;;;;8.70;7.35;;;;;;;;;;4990692;28;20076;-73
2023/01/09 11:21:21;;;;;;;9.05;7.95;;;;;;;;;;5003296;28;20119;-70
2023/01/09 11:23:48;;;;;;;9.95;8.18;;;;;;;;;;5003032;28;20036;-71
2023/01/09 11:26:20;;;;;;;9.30;7.97;;;;;;;;;;5003283;28;20037;-72
2023/01/09 11:28:46;;;;;;;9.68;7.40;;;;;;;;;;5001545;28;20069;-72
2023/01/09 11:31:11;;;;;;;9.38;7.95;;;;;;;;;;4987448;28;20041;-72
2023/01/09 11:33:37;;;;;;;9.37;7.63;;;;;;;;;;5003163;28;20515;-72
2023/01/09 11:36:04;;;;;;;9.07;7.57;;;;;;;;;;5002302;28;20383;-72
2023/01/09 11:38:30;;;;;;;8.68;7.47;;;;;;;;;;5004075;28;20057;-73
2023/01/09 11:41:01;;;;;;;9.00;7.43;;;;;;;;;;5004869;28;20037;-71
2023/01/09 11:43:37;;;;;;;9.13;7.70;;;;;;;;;;5004905;28;20580;-74
2023/01/09 11:46:03;;;;;;;8.35;6.93;;;;;;;;;;5002526;28;20021;-74
2023/01/09 11:48:31;;;;;;;9.90;8.15;;;;;;;;;;5005159;28;20657;-72
2023/01/09 11:50:57;;;;;;;9.23;7.65;;;;;;;;;;5009017;28;20030;-72
2023/01/09 11:53:23;;;;;;;9.10;7.70;;;;;;;;;;5007580;28;20069;-71
2023/01/09 11:56:07;;;;;;;8.50;7.18;;;;;;;;;;5003112;28;20081;-71
2023/01/09 11:58:33;;;;;;;8.73;7.38;;;;;;;;;;4989351;28;20066;-71
2023/01/09 12:01:03;;;;;;;8.20;7.30;;;;;;;;;;5004733;28;20037;-72
2023/01/09 12:03:28;;;;;;;8.27;7.30;;;;;;;;;;5009292;28;20018;-71
2023/01/09 12:05:55;;;;;;;9.77;7.07;;;;;;;;;;4999383;28;20638;-71
2023/01/09 12:08:25;;;;;;;9.25;7.53;;;;;;;;;;4992185;28;20308;-71
2023/01/09 12:10:56;;;;;;;8.13;7.03;;;;;;;;;;5010928;28;20041;-71
2023/01/09 12:13:24;;;;;;;9.02;7.60;;;;;;;;;;5021629;28;20052;-71
2023/01/09 12:15:53;;;;;;;9.30;7.68;;;;;;;;;;5003720;28;20025;-71
2023/01/09 12:18:37;;;;;;;8.23;7.25;;;;;;;;;;5003333;28;20354;-71
2023/01/09 12:21:05;;;;;;;8.60;7.28;;;;;;;;;;5009283;28;20089;-70
2023/01/09 12:23:40;;;;;;;8.93;7.65;;;;;;;;;;5000276;28;20037;-71
2023/01/09 12:26:06;;;;;;;9.27;6.85;;;;;;;;;;5020993;28;20034;-71
2023/01/09 12:28:34;;;;;;;9.20;7.23;;;;;;;;;;5001357;28;20461;-71
2023/01/09 12:31:05;;;;;;;9.15;7.50;;;;;;;;;;5004496;28;20010;-71
2023/01/09 12:33:33;;;;;;;9.32;7.75;;;;;;;;;;5002903;28;20040;-70
2023/01/09 12:36:01;;;;;;;9.57;7.25;;;;;;;;;;5002261;28;20030;-70
2023/01/09 12:38:30;;;;;;;8.48;6.85;;;;;;;;;;5003586;28;20034;-71
2023/01/09 12:40:55;;;;;;;8.57;7.13;;;;;;;;;;4997888;28;20038;-71
2023/01/09 12:43:21;;;;;;;8.67;6.77;;;;;;;;;;4992924;28;20045;-71
2023/01/09 12:45:52;;;;;;;8.20;6.80;;;;;;;;;;5003577;28;20045;-71
2023/01/09 12:48:26;;;;;;;8.93;6.72;;;;;;;;;;5009063;28;20025;-74
2023/01/09 12:51:10;;;;;;;7.88;6.70;;;;;;;;;;5010271;28;20040;-67
2023/01/09 12:53:36;;;;;;;8.95;7.20;;;;;;;;;;4993623;28;20050;-70
2023/01/09 12:56:08;;;;;;;9.10;7.47;;;;;;;;;;5004556;28;20049;-72
2023/01/09 12:58:48;;;;;;;7.82;6.68;;;;;;;;;;4999405;28;20042;-72
2023/01/09 13:01:15;;;;;;;9.40;6.50;;;;;;;;;;5003497;28;20037;-71
2023/01/09 13:04:00;;;;;;;9.45;7.03;;;;;;;;;;5009437;28;20026;-71
2023/01/09 13:06:25;;;;;;;8.45;7.22;;;;;;;;;;4985146;28;20093;-70
2023/01/09 13:09:00;;;;;;;8.25;7.35;;;;;;;;;;4998819;28;20621;-69
2023/01/09 13:11:36;;;;;;;8.52;7.03;;;;;;;;;;4990600;28;20638;-71
2023/01/09 13:14:22;;;;;;;8.52;7.13;;;;;;;;;;5005009;28;20390;-70
2023/01/09 13:16:48;;;;;;;9.05;7.35;;;;;;;;;;5002065;28;20049;-71
2023/01/09 13:19:30;;;;;;;8.88;7.38;;;;;;;;;;5007708;28;20040;-71
2023/01/09 13:21:55;;;;;;;8.38;7.15;;;;;;;;;;5016266;28;20033;-70
2023/01/09 13:24:44;;;;;;;8.93;7.00;;;;;;;;;;5010972;28;20484;-72
2023/01/09 13:27:10;;;;;;;8.48;6.80;;;;;;;;;;4970727;28;20375;-71
2023/01/09 13:29:36;;;;;;;8.60;7.13;;;;;;;;;;4984419;28;20188;-71
2023/01/09 13:32:04;;;;;;;7.90;6.60;;;;;;;;;;5001403;28;20354;-71
2023/01/09 13:34:30;;;;;;;9.63;7.25;;;;;;;;;;5003416;28;20045;-70
2023/01/09 13:36:55;;;;;;;8.68;6.90;;;;;;;;;;4991316;28;20093;-71
2023/01/09 13:39:28;;;;;;;8.65;7.18;;;;;;;;;;5001909;28;20091;-70
2023/01/09 13:44:39;;;;;;;8.40;6.82;;;;;;;;;;4992165;28;20348;-70
2023/01/09 13:47:08;;;;;;;8.65;7.13;;;;;;;;;;5000730;28;20045;-71
2023/01/09 13:49:42;;;;;;;8.88;7.07;;;;;;;;;;4984475;28;20034;-70
2023/01/09 13:52:23;;;;;;;9.93;6.75;;;;;;;;;;5002476;28;20038;-72
2023/01/09 13:54:54;;;;;;;8.00;7.03;;;;;;;;;;5002984;28;20044;-71
2023/01/09 13:57:24;;;;;;;7.63;6.53;;;;;;;;;;5000364;28;20079;-72
2023/01/09 13:59:49;;;;;;;7.88;6.78;;;;;;;;;;4998299;28;20061;-70
2023/01/09 14:02:33;;;;;;;7.80;6.50;;;;;;;;;;4999507;28;20049;-72
2023/01/09 14:05:00;;;;;;;9.48;7.32;;;;;;;;;;5004504;28;20520;-71
2023/01/09 14:07:26;;;;;;;7.82;6.72;;;;;;;;;;4999604;28;20101;-70
2023/01/09 14:09:54;;;;;;;8.45;7.07;;;;;;;;;;5000916;28;20022;-71
2023/01/09 14:12:19;;;;;;;8.45;7.00;;;;;;;;;;4999590;28;20030;-71
2023/01/09 14:14:44;;;;;;;9.02;7.18;;;;;;;;;;5001194;28;20169;-71
2023/01/09 14:17:16;;;;;;;8.20;7.03;;;;;;;;;;5000124;28;20050;-71
2023/01/09 14:19:41;;;;;;;9.07;7.40;;;;;;;;;;4976915;28;20057;-72
2023/01/09 14:22:07;;;;;;;8.83;7.10;;;;;;;;;;5003019;28;20149;-71
2023/01/09 14:24:39;;;;;;;8.07;6.93;;;;;;;;;;5003661;28;20021;-71
2023/01/09 14:27:08;;;;;;;9.15;6.63;;;;;;;;;;5000452;28;20513;-71
2023/01/09 14:29:40;;;;;;;8.32;7.00;;;;;;;;;;4996681;28;20217;-71
2023/01/09 14:32:26;;;;;;;8.98;7.07;;;;;;;;;;4996545;28;20034;-72
2023/01/09 14:34:54;;;;;;;7.80;6.70;;;;;;;;;;5001814;28;20026;-72
2023/01/09 14:37:20;;;;;;;8.88;7.40;;;;;;;;;;5004191;28;20056;-73
2023/01/09 14:39:45;;;;;;;8.40;6.80;;;;;;;;;;5001008;28;20017;-72
2023/01/09 14:42:14;;;;;;;8.57;6.77;;;;;;;;;;5000004;28;20700;-71
2023/01/09 14:44:47;;;;;;;8.18;6.80;;;;;;;;;;5000570;28;20045;-72
2023/01/09 14:47:31;;;;;;;8.57;6.97;;;;;;;;;;4983310;28;20053;-71
2023/01/09 14:50:03;;;;;;;9.20;7.07;;;;;;;;;;4998176;28;20038;-72
2023/01/09 14:52:29;;;;;;;8.82;6.45;;;;;;;;;;4997636;28;20048;-72
2023/01/09 14:54:58;;;;;;;8.50;7.45;;;;;;;;;;5002301;28;20049;-71